createdAt,value
2023-05-07T00:00:57.434Z,18.55
2023-05-07T00:03:30.089Z,18.92
2023-05-07T00:06:02.185Z,17.85
2023-05-07T00:08:34.121Z,19.15
2023-05-07T00:11:06.063Z,18.92
2023-05-07T00:13:38.042Z,18.63
2023-05-07T00:16:10.079Z,18.95
2023-05-07T00:18:42.076Z,19.25
2023-05-07T00:21:14.139Z,20.17
2023-05-07T00:23:46.017Z,19.42
2023-05-07T00:26:17.929Z,18.58
2023-05-07T00:28:51.373Z,19.98
2023-05-07T00:31:23.430Z,18.83
2023-05-07T00:33:55.425Z,19.38
2023-05-07T00:36:27.367Z,19.70
2023-05-07T00:39:02.799Z,19.35
2023-05-07T00:41:34.826Z,20.10
2023-05-07T00:44:07.721Z,19.60
2023-05-07T00:46:39.878Z,18.88
2023-05-07T00:50:08.454Z,18.92
2023-05-07T00:52:40.851Z,20.30
2023-05-07T00:55:14.205Z,19.70
2023-05-07T00:57:46.605Z,19.08
2023-05-07T01:00:19.674Z,19.00
2023-05-07T01:02:51.788Z,20.02
2023-05-07T01:05:25.401Z,18.45
2023-05-07T01:07:58.950Z,19.13
2023-05-07T01:10:31.713Z,19.45
2023-05-07T01:13:04.783Z,20.77
2023-05-07T01:15:37.379Z,22.52
2023-05-07T01:18:09.404Z,19.73
2023-05-07T01:20:42.293Z,19.67
2023-05-07T01:23:14.789Z,20.63
2023-05-07T01:25:54.713Z,19.88
2023-05-07T01:28:28.616Z,19.58
2023-05-07T01:35:12.598Z,19.88
2023-05-07T01:37:45.173Z,20.60
2023-05-07T01:40:17.588Z,20.08
2023-05-07T01:42:49.623Z,19.23
2023-05-07T01:45:21.840Z,19.20
2023-05-07T01:47:54.843Z,19.63
2023-05-07T01:50:27.290Z,18.90
2023-05-07T01:52:59.262Z,19.27
2023-05-07T01:55:31.193Z,20.33
2023-05-07T01:58:04.633Z,18.52
2023-05-07T02:00:37.235Z,19.20
2023-05-07T02:03:10.034Z,19.52
2023-05-07T02:05:49.772Z,20.33
2023-05-07T02:08:29.701Z,19.45
2023-05-07T02:11:02.958Z,19.48
2023-05-07T02:13:35.886Z,19.35
2023-05-07T02:16:08.059Z,18.63
2023-05-07T02:18:40.158Z,20.15
2023-05-07T02:21:12.103Z,20.52
2023-05-07T02:23:44.015Z,19.95
2023-05-07T02:26:15.927Z,20.02
2023-05-07T02:28:48.322Z,19.60
2023-05-07T02:31:20.594Z,19.48
2023-05-07T02:33:52.517Z,19.70
2023-05-07T02:36:24.535Z,19.75
2023-05-07T02:39:03.694Z,19.65
2023-05-07T02:41:38.555Z,19.40
2023-05-07T02:44:10.449Z,20.08
2023-05-07T02:46:43.256Z,20.35
2023-05-07T02:49:17.721Z,19.70
2023-05-07T02:51:49.783Z,20.23
2023-05-07T02:54:26.684Z,18.88
2023-05-07T02:56:58.782Z,20.13
2023-05-07T02:59:31.083Z,21.38
2023-05-07T03:02:03.321Z,21.33
2023-05-07T03:04:35.379Z,20.90
2023-05-07T03:07:10.149Z,20.80
2023-05-07T03:09:43.143Z,19.73
2023-05-07T03:12:15.389Z,20.30
2023-05-07T03:14:47.320Z,19.90
2023-05-07T03:17:19.248Z,21.08
2023-05-07T03:19:51.338Z,20.88
2023-05-07T03:22:23.312Z,20.15
2023-05-07T03:24:55.396Z,20.02
2023-05-07T03:27:27.316Z,21.15
2023-05-07T03:30:00.540Z,20.13
2023-05-07T03:32:32.661Z,20.25
2023-05-07T03:35:05.135Z,19.80
2023-05-07T03:37:37.206Z,20.20
2023-05-07T03:40:11.667Z,20.42
2023-05-07T03:42:50.467Z,20.42
2023-05-07T03:45:24.646Z,20.30
2023-05-07T03:48:05.402Z,19.70
2023-05-07T03:50:39.130Z,20.08
2023-05-07T03:53:11.313Z,19.95
2023-05-07T03:55:45.102Z,20.05
2023-05-07T03:58:17.594Z,19.50
2023-05-07T04:00:50.176Z,19.85
2023-05-07T04:03:30.830Z,19.83
2023-05-07T04:06:05.077Z,17.58
2023-05-07T04:08:39.944Z,19.27
2023-05-07T04:11:13.034Z,17.30
2023-05-07T04:13:44.980Z,18.63
2023-05-07T04:16:16.875Z,18.20
2023-05-07T04:18:48.908Z,18.63
2023-05-07T04:21:21.870Z,18.75
2023-05-07T04:23:55.662Z,17.95
2023-05-07T04:26:27.610Z,20.05
2023-05-07T04:29:00.265Z,19.45
2023-05-07T04:31:37.067Z,20.48
2023-05-07T04:34:10.105Z,19.92
2023-05-07T04:36:43.586Z,21.63
2023-05-07T04:39:17.616Z,21.13
2023-05-07T04:41:52.199Z,20.98
2023-05-07T04:44:24.159Z,19.45
2023-05-07T04:46:56.168Z,21.05
2023-05-07T04:49:28.198Z,21.02
2023-05-07T04:52:01.188Z,21.92
2023-05-07T04:54:33.261Z,22.27
2023-05-07T04:57:05.915Z,22.00
2023-05-07T04:59:38.038Z,19.83
2023-05-07T05:02:11.023Z,21.30
2023-05-07T05:04:43.102Z,21.35
2023-05-07T05:07:15.358Z,22.63
2023-05-07T05:09:47.325Z,21.38
2023-05-07T05:12:19.406Z,21.77
2023-05-07T05:14:51.437Z,21.67
2023-05-07T05:17:23.804Z,20.48
2023-05-07T05:19:55.780Z,21.90
2023-05-07T05:22:28.067Z,20.10
2023-05-07T05:25:00.060Z,20.80
2023-05-07T05:27:32.461Z,21.52
2023-05-07T05:30:05.414Z,20.38
2023-05-07T05:32:38.175Z,19.70
2023-05-07T05:35:11.671Z,20.48
2023-05-07T05:37:45.080Z,19.27
2023-05-07T05:40:17.683Z,18.27
2023-05-07T05:42:49.593Z,19.90
2023-05-07T05:45:22.746Z,19.10
2023-05-07T05:47:57.048Z,19.33
2023-05-07T05:50:29.202Z,18.50
2023-05-07T05:53:01.440Z,17.15
2023-05-07T05:55:35.001Z,17.58
2023-05-07T05:58:07.421Z,18.83
2023-05-07T06:00:43.388Z,18.23
2023-05-07T06:03:15.681Z,18.33
2023-05-07T06:05:48.640Z,18.90
2023-05-07T06:08:20.911Z,17.77
2023-05-07T06:10:53.252Z,19.38
2023-05-07T06:13:26.773Z,17.27
2023-05-07T06:15:59.283Z,20.15
2023-05-07T06:18:31.369Z,18.95
2023-05-07T06:21:06.938Z,19.38
2023-05-07T06:23:42.182Z,18.77
2023-05-07T06:26:14.396Z,17.63
2023-05-07T06:28:49.540Z,17.83
2023-05-07T06:31:22.757Z,19.05
2023-05-07T06:34:12.239Z,18.55
2023-05-07T06:37:09.354Z,18.52
2023-05-07T06:39:57.063Z,17.55
2023-05-07T06:42:29.935Z,16.27
2023-05-07T06:45:06.088Z,15.32
2023-05-07T06:47:40.958Z,14.88
2023-05-07T06:50:13.236Z,13.77
2023-05-07T06:53:07.374Z,13.55
2023-05-07T06:55:41.888Z,12.35
2023-05-07T06:58:14.338Z,12.35
2023-05-07T07:00:46.918Z,13.23
2023-05-07T07:03:19.230Z,11.38
2023-05-07T07:05:55.410Z,11.88
2023-05-07T07:08:27.316Z,11.50
2023-05-07T07:10:59.248Z,11.55
2023-05-07T07:13:33.813Z,11.95
2023-05-07T07:16:08.608Z,11.88
2023-05-07T07:18:40.826Z,12.43
2023-05-07T07:21:12.670Z,11.52
2023-05-07T07:23:44.658Z,10.82
2023-05-07T07:26:16.607Z,10.98
2023-05-07T07:28:48.573Z,11.15
2023-05-07T07:31:23.947Z,9.02
2023-05-07T07:33:59.247Z,10.07
2023-05-07T07:36:42.552Z,9.13
2023-05-07T07:39:19.767Z,8.57
2023-05-07T07:41:54.853Z,10.50
2023-05-07T07:44:28.539Z,9.68
2023-05-07T07:47:04.794Z,8.00
2023-05-07T07:49:37.712Z,9.77
2023-05-07T07:52:11.873Z,8.75
2023-05-07T07:54:45.362Z,8.27
2023-05-07T07:57:17.443Z,7.78
2023-05-07T07:59:50.472Z,7.88
2023-05-07T08:02:22.665Z,8.00
2023-05-07T08:04:56.548Z,8.45
2023-05-07T08:07:29.031Z,7.07
2023-05-07T08:10:00.978Z,6.80
2023-05-07T08:12:33.014Z,6.63
2023-05-07T08:15:06.024Z,6.72
2023-05-07T08:17:37.997Z,8.82
2023-05-07T08:20:10.618Z,9.60
2023-05-07T08:22:43.340Z,7.85
2023-05-07T08:25:15.418Z,8.27
2023-05-07T08:27:48.049Z,8.05
2023-05-07T08:30:21.217Z,10.43
2023-05-07T08:32:53.752Z,9.65
2023-05-07T08:35:27.304Z,9.63
2023-05-07T08:38:00.189Z,7.82
2023-05-07T08:40:39.902Z,9.38
2023-05-07T08:43:16.095Z,8.85
2023-05-07T08:45:54.720Z,10.32
2023-05-07T08:48:30.767Z,7.35
2023-05-07T08:51:14.180Z,8.63
2023-05-07T08:53:49.377Z,7.35
2023-05-07T08:56:26.754Z,5.93
2023-05-07T08:59:00.432Z,7.45
2023-05-07T09:01:36.620Z,5.40
2023-05-07T09:04:08.942Z,6.63
2023-05-07T09:06:43.073Z,5.63
2023-05-07T09:09:19.635Z,6.85
2023-05-07T09:12:00.687Z,7.65
2023-05-07T09:14:35.357Z,8.88
2023-05-07T09:17:08.832Z,10.05
2023-05-07T09:19:40.898Z,6.53
2023-05-07T09:22:14.098Z,7.90
2023-05-07T09:25:10.507Z,8.70
2023-05-07T09:27:44.317Z,8.10
2023-05-07T09:30:16.642Z,6.68
2023-05-07T09:32:48.759Z,7.63
2023-05-07T09:35:30.700Z,7.75
2023-05-07T09:38:07.470Z,8.65
2023-05-07T09:40:41.377Z,6.78
2023-05-07T09:43:18.191Z,8.07
2023-05-07T09:46:03.378Z,7.40
2023-05-07T09:48:40.928Z,7.97
2023-05-07T09:51:23.267Z,9.52
2023-05-07T09:53:57.121Z,9.43
2023-05-07T09:56:31.609Z,7.97
2023-05-07T09:59:07.082Z,7.70
2023-05-07T10:01:41.835Z,8.73
2023-05-07T10:04:15.214Z,9.40
2023-05-07T10:06:49.260Z,9.00
2023-05-07T10:09:22.302Z,9.98
2023-05-07T10:11:55.375Z,10.45
2023-05-07T10:14:28.965Z,12.20
2023-05-07T10:17:03.024Z,12.68
2023-05-07T10:19:37.542Z,12.15
2023-05-07T10:22:10.458Z,12.73
2023-05-07T10:24:53.289Z,13.75
2023-05-07T10:27:26.293Z,13.73
2023-05-07T10:30:24.057Z,13.98
2023-05-07T10:33:06.660Z,12.68
2023-05-07T10:35:42.271Z,14.25
2023-05-07T10:38:14.709Z,11.02
2023-05-07T10:40:49.320Z,11.60
2023-05-07T10:43:23.437Z,10.57
2023-05-07T10:46:22.099Z,8.98
2023-05-07T10:49:12.641Z,11.48
2023-05-07T10:52:18.587Z,11.05
2023-05-07T10:55:33.162Z,10.23
2023-05-07T10:58:31.223Z,12.65
2023-05-07T11:01:20.452Z,12.10
2023-05-07T11:04:15.349Z,12.40
2023-05-07T11:07:09.378Z,11.20
2023-05-07T11:09:56.810Z,10.77
2023-05-07T11:12:52.855Z,9.85
2023-05-07T11:15:49.463Z,10.63
2023-05-07T11:18:54.529Z,11.27
2023-05-07T11:21:41.190Z,9.77
2023-05-07T11:24:45.407Z,10.30
2023-05-07T11:27:24.715Z,10.40
2023-05-07T11:29:57.552Z,10.85
2023-05-07T11:32:31.709Z,9.52
2023-05-07T11:35:04.693Z,8.18
2023-05-07T11:37:36.882Z,7.20
2023-05-07T11:40:12.097Z,9.48
2023-05-07T11:42:44.342Z,9.35
2023-05-07T11:45:26.286Z,8.07
2023-05-07T11:47:58.190Z,8.05
2023-05-07T11:50:30.088Z,9.07
2023-05-07T11:53:08.404Z,9.35
2023-05-07T11:55:40.684Z,9.18
2023-05-07T11:58:21.268Z,7.40
2023-05-07T12:03:25.839Z,9.75
2023-05-07T12:05:57.811Z,8.85
2023-05-07T12:08:29.747Z,9.02
2023-05-07T12:11:01.638Z,8.27
2023-05-07T12:13:33.543Z,7.00
2023-05-07T12:16:06.526Z,8.48
2023-05-07T12:18:39.057Z,10.20
2023-05-07T12:21:11.903Z,9.68
2023-05-07T12:23:44.008Z,10.30
2023-05-07T12:26:15.892Z,9.70
2023-05-07T12:28:48.136Z,10.57
2023-05-07T12:31:20.141Z,9.32
2023-05-07T12:33:52.373Z,11.05
2023-05-07T12:36:24.186Z,9.43
2023-05-07T12:38:56.205Z,9.15
2023-05-07T12:41:30.225Z,8.73
2023-05-07T12:44:02.075Z,9.45
2023-05-07T12:46:39.641Z,8.73
2023-05-07T12:49:11.539Z,7.35
2023-05-07T12:51:43.643Z,8.60
2023-05-07T12:54:36.121Z,7.68
2023-05-07T12:57:09.501Z,7.65
2023-05-07T12:59:42.685Z,7.00
2023-05-07T13:02:15.026Z,7.50
2023-05-07T13:04:48.824Z,6.07
2023-05-07T13:07:21.141Z,7.50
2023-05-07T13:09:53.017Z,7.57
2023-05-07T13:12:24.908Z,5.40
2023-05-07T13:14:56.982Z,6.05
2023-05-07T13:17:28.982Z,7.28
2023-05-07T13:20:00.867Z,6.30
2023-05-07T13:22:33.503Z,6.25
2023-05-07T13:25:05.773Z,8.35
2023-05-07T13:27:38.024Z,6.97
2023-05-07T13:30:10.144Z,6.55
2023-05-07T13:32:42.285Z,5.93
2023-05-07T13:35:14.333Z,6.07
2023-05-07T13:38:23.177Z,5.68
2023-05-07T13:40:56.661Z,6.65
2023-05-07T13:43:28.530Z,5.85
2023-05-07T13:46:03.574Z,6.25
2023-05-07T13:48:37.722Z,6.30
2023-05-07T13:51:09.628Z,5.72
2023-05-07T13:53:41.696Z,7.47
2023-05-07T13:56:13.701Z,5.93
2023-05-07T13:58:58.970Z,5.55
2023-05-07T14:01:32.492Z,5.20
2023-05-07T14:04:04.828Z,4.82
2023-05-07T14:06:36.672Z,6.32
2023-05-07T14:09:08.631Z,5.63
2023-05-07T14:11:41.018Z,5.50
2023-05-07T14:14:12.887Z,5.55
2023-05-07T14:16:46.547Z,5.22
2023-05-07T14:19:19.881Z,5.75
2023-05-07T14:21:51.766Z,4.63
2023-05-07T14:24:36.963Z,5.82
2023-05-07T14:27:10.287Z,5.35
2023-05-07T14:29:43.520Z,5.85
2023-05-07T14:32:15.417Z,4.25
2023-05-07T14:34:47.672Z,6.65
2023-05-07T14:37:20.972Z,5.68
2023-05-07T14:39:53.168Z,5.30
2023-05-07T14:42:25.268Z,4.72
2023-05-07T14:44:57.207Z,4.97
2023-05-07T14:47:29.265Z,7.15
2023-05-07T14:50:02.281Z,5.95
2023-05-07T14:52:34.202Z,5.57
2023-05-07T14:55:06.942Z,7.18
2023-05-07T14:57:39.003Z,6.88
2023-05-07T15:00:12.334Z,8.75
2023-05-07T15:02:44.292Z,8.75
2023-05-07T15:05:16.399Z,6.30
2023-05-07T15:07:48.272Z,5.20
2023-05-07T15:10:20.403Z,6.57
2023-05-07T15:12:52.517Z,7.40
2023-05-07T15:15:24.400Z,9.10
2023-05-07T15:17:58.753Z,7.32
2023-05-07T15:20:30.972Z,7.38
2023-05-07T15:23:03.760Z,5.93
2023-05-07T15:25:35.744Z,6.88
2023-05-07T15:28:07.934Z,7.78
2023-05-07T15:30:39.864Z,9.25
2023-05-07T15:33:12.091Z,8.75
2023-05-07T15:35:43.986Z,8.50
2023-05-07T15:38:15.875Z,8.23
2023-05-07T15:40:47.757Z,9.25
2023-05-07T15:43:19.691Z,8.35
2023-05-07T15:45:51.716Z,6.80
2023-05-07T15:48:24.139Z,7.00
2023-05-07T15:50:56.103Z,6.38
2023-05-07T15:53:27.972Z,5.95
2023-05-07T15:56:01.137Z,6.68
2023-05-07T15:58:33.368Z,7.55
2023-05-07T16:01:05.665Z,7.20
2023-05-07T16:03:38.901Z,8.27
2023-05-07T16:06:13.959Z,11.93
2023-05-07T16:08:45.927Z,10.52
2023-05-07T16:11:18.101Z,9.57
2023-05-07T16:13:50.164Z,8.38
2023-05-07T16:16:22.326Z,8.93
2023-05-07T16:18:54.251Z,8.45
2023-05-07T16:21:26.657Z,9.00
2023-05-07T16:23:58.909Z,8.38
2023-05-07T16:26:30.917Z,7.40
2023-05-07T16:29:05.221Z,8.23
2023-05-07T16:31:37.215Z,9.18
2023-05-07T16:34:09.087Z,7.90
2023-05-07T16:36:41.312Z,9.18
2023-05-07T16:39:13.152Z,8.95
2023-05-07T16:41:48.700Z,9.00
2023-05-07T16:44:22.558Z,9.32
2023-05-07T16:46:54.390Z,8.80
2023-05-07T16:49:26.235Z,9.07
2023-05-07T16:51:57.994Z,8.98
2023-05-07T16:54:30.121Z,8.85
2023-05-07T16:57:02.218Z,9.45
2023-05-07T16:59:34.261Z,9.23
2023-05-07T17:10:18.409Z,10.20
2023-05-07T17:12:50.504Z,10.10
2023-05-07T17:15:22.428Z,10.05
2023-05-07T17:17:54.336Z,10.00
2023-05-07T17:20:27.210Z,9.52
2023-05-07T17:22:59.082Z,10.02
2023-05-07T17:25:32.765Z,10.13
2023-05-07T17:28:08.212Z,10.23
2023-05-07T17:30:48.931Z,9.57
2023-05-07T17:33:22.280Z,11.00
2023-05-07T17:35:56.158Z,10.25
2023-05-07T17:38:29.417Z,11.10
2023-05-07T17:41:02.085Z,10.60
2023-05-07T17:44:17.701Z,11.50
2023-05-07T17:46:52.247Z,10.57
2023-05-07T17:49:25.457Z,11.25
2023-05-07T17:51:57.360Z,10.52
2023-05-07T17:54:30.678Z,11.48
2023-05-07T17:57:02.735Z,11.52
2023-05-07T17:59:35.922Z,11.20
2023-05-07T18:02:07.850Z,11.32
2023-05-07T18:04:40.497Z,12.35
2023-05-07T18:07:13.557Z,12.55
2023-05-07T18:09:46.197Z,12.25
2023-05-07T18:12:19.563Z,12.50
2023-05-07T18:14:51.916Z,12.27
2023-05-07T18:17:26.484Z,12.95
2023-05-07T18:19:58.497Z,13.68
2023-05-07T18:22:30.427Z,14.05
2023-05-07T18:25:03.705Z,13.30
2023-05-07T18:27:35.773Z,13.45
2023-05-07T18:30:08.310Z,13.82
2023-05-07T18:32:40.439Z,14.18
2023-05-07T18:35:12.710Z,14.82
2023-05-07T18:37:45.963Z,13.65
2023-05-07T18:40:17.943Z,11.82
2023-05-07T18:42:49.892Z,13.68
2023-05-07T18:45:21.859Z,13.50
2023-05-07T18:48:40.715Z,13.85
2023-05-07T19:14:53.326Z,14.43
2023-05-07T19:17:25.606Z,14.65
2023-05-07T19:19:58.058Z,13.05
2023-05-07T19:22:30.058Z,13.00
2023-05-07T19:25:02.051Z,14.68
2023-05-07T19:27:34.274Z,15.50
2023-05-07T19:30:08.114Z,14.13
2023-05-07T19:32:40.067Z,13.48
2023-05-07T19:35:12.245Z,13.52
2023-05-07T19:37:44.334Z,13.60
2023-05-07T19:40:16.333Z,13.48
2023-05-07T19:42:48.479Z,13.18
2023-05-07T19:45:23.267Z,13.98
2023-05-07T19:47:55.436Z,19.73
2023-05-07T19:50:27.571Z,19.48
2023-05-07T19:52:59.697Z,13.98
2023-05-07T19:55:31.860Z,44.22
2023-05-07T19:58:03.979Z,15.00
2023-05-07T20:00:35.951Z,13.95
2023-05-07T20:03:07.918Z,13.98
2023-05-07T20:05:39.836Z,14.50
2023-05-07T20:08:11.781Z,14.40
2023-05-07T20:10:43.793Z,16.02
2023-05-07T20:13:16.168Z,14.90
2023-05-07T20:15:48.418Z,15.50
2023-05-07T20:18:20.289Z,16.15
2023-05-07T20:20:52.228Z,15.57
2023-05-07T20:23:24.563Z,15.57
2023-05-07T20:25:58.035Z,15.75
2023-05-07T20:28:29.991Z,15.73
2023-05-07T20:31:01.948Z,16.88
2023-05-07T20:33:33.914Z,16.73
2023-05-07T20:36:06.210Z,16.08
2023-05-07T20:38:38.202Z,15.77
2023-05-07T20:41:14.346Z,15.85
2023-05-07T20:43:46.159Z,15.70
2023-05-07T20:46:20.826Z,16.30
2023-05-07T20:48:52.865Z,15.38
2023-05-07T20:51:24.698Z,15.07
2023-05-07T20:53:56.599Z,13.85
2023-05-07T20:56:28.456Z,12.77
2023-05-07T20:59:00.539Z,13.77
2023-05-07T21:01:32.566Z,12.07
2023-05-07T21:04:04.573Z,13.57
2023-05-07T21:06:36.435Z,13.95
2023-05-07T21:09:08.325Z,13.80
2023-05-07T21:11:40.287Z,13.07
2023-05-07T21:14:12.222Z,15.70
2023-05-07T21:16:44.302Z,15.48
2023-05-07T21:19:16.565Z,18.92
2023-05-07T21:21:48.441Z,17.30
2023-05-07T21:24:20.331Z,15.00
2023-05-07T21:26:55.957Z,11.38
2023-05-07T21:29:27.868Z,10.05
2023-05-07T21:31:59.753Z,17.38
2023-05-07T21:34:31.662Z,12.02
2023-05-07T21:37:03.913Z,8.50
2023-05-07T21:39:36.245Z,10.48
2023-05-07T21:42:08.087Z,8.25
2023-05-07T21:44:39.948Z,7.75
2023-05-07T21:47:11.860Z,8.27
2023-05-07T21:49:43.942Z,7.40
2023-05-07T21:52:17.022Z,6.80
2023-05-07T21:54:52.776Z,6.80
2023-05-07T21:57:24.629Z,5.18
2023-05-07T21:59:56.558Z,2.50
2023-05-07T22:02:28.378Z,1.65
2023-05-07T22:05:00.572Z,1.23
2023-05-07T22:07:32.416Z,0.80
2023-05-07T22:10:04.636Z,0.98
2023-05-07T22:12:36.588Z,1.00
2023-05-07T22:15:08.805Z,1.40
2023-05-07T22:17:40.670Z,1.15
2023-05-07T22:20:13.030Z,1.50
2023-05-07T22:22:53.498Z,1.42
2023-05-07T22:25:26.270Z,1.75
2023-05-07T22:27:58.145Z,1.80
2023-05-07T22:30:30.005Z,2.63
2023-05-07T22:33:01.901Z,1.83
2023-05-07T22:35:33.851Z,1.48
2023-05-07T22:38:05.705Z,1.88
2023-05-07T22:40:37.662Z,1.75
2023-05-07T22:43:09.533Z,2.38
2023-05-07T22:45:41.634Z,1.98
2023-05-07T22:48:13.571Z,2.47
2023-05-07T22:50:45.665Z,3.13
2023-05-07T22:53:17.482Z,2.80
2023-05-07T22:55:56.074Z,2.80
2023-05-07T22:59:21.798Z,2.70
2023-05-07T23:01:53.766Z,2.55
2023-05-07T23:04:26.758Z,2.60
2023-05-07T23:06:58.570Z,2.50
2023-05-07T23:09:30.856Z,2.08
2023-05-07T23:12:03.597Z,2.38
2023-05-07T23:14:35.570Z,1.90
2023-05-07T23:17:07.722Z,2.25
2023-05-07T23:19:39.941Z,1.90
2023-05-07T23:22:12.340Z,1.98
2023-05-07T23:24:44.590Z,1.80
2023-05-07T23:27:16.441Z,2.20
2023-05-07T23:29:48.341Z,8.13
2023-05-07T23:32:20.336Z,2.90
2023-05-07T23:34:55.586Z,2.30
2023-05-07T23:37:27.527Z,2.08
2023-05-07T23:39:59.404Z,2.97
2023-05-07T23:42:31.353Z,1.80
2023-05-07T23:45:03.815Z,2.55
2023-05-07T23:47:35.728Z,2.25
2023-05-07T23:50:07.868Z,2.20
2023-05-07T23:52:39.676Z,2.88
2023-05-07T23:55:11.538Z,2.22
2023-05-07T23:57:43.450Z,2.80
